Time;durP1;ratioP1;P1;durP2;ratioP2;P2;SDS_P1;SDS_P2;PMS_P1;PMS_P2;Temp;Humidity;BMP_temperature;BMP_pressure;BME280_temperature;BME280_humidity;BME280_pressure;Samples;Min_cycle;Max_cycle;Signal;HPM_P1;HPM_P2
2024/02/27 00:00:25;;;;;;;16.65;14.38;;;7.30;99.90;;;;;;5071502;28;20217;-63
2024/02/27 00:02:53;;;;;;;18.85;15.40;;;7.30;99.90;;;;;;5061418;28;20212;-63
2024/02/27 00:05:20;;;;;;;18.55;14.35;;;7.30;99.90;;;;;;5068863;28;20216;-63
2024/02/27 00:07:47;;;;;;;19.73;13.65;;;7.30;99.90;;;;;;5079770;28;20205;-63
2024/02/27 00:10:15;;;;;;;21.65;14.85;;;7.30;99.90;;;;;;5060141;28;20293;-63
2024/02/27 00:12:42;;;;;;;16.30;14.60;;;7.20;99.90;;;;;;5073579;28;20233;-63
2024/02/27 00:15:09;;;;;;;20.38;16.80;;;7.20;99.90;;;;;;5077102;28;20213;-63
2024/02/27 00:17:36;;;;;;;18.48;16.05;;;7.20;99.90;;;;;;5086990;28;20227;-64
2024/02/27 00:20:07;;;;;;;19.52;16.83;;;7.20;99.90;;;;;;5086355;28;20235;-64
2024/02/27 00:22:34;;;;;;;19.23;16.83;;;7.20;99.90;;;;;;5090936;28;20209;-64
2024/02/27 00:25:01;;;;;;;22.38;17.92;;;7.20;99.90;;;;;;5085343;28;20442;-63
2024/02/27 00:27:28;;;;;;;22.55;19.08;;;7.20;99.90;;;;;;5072198;28;20301;-64
2024/02/27 00:29:54;;;;;;;24.70;17.55;;;7.20;99.90;;;;;;5098009;22;20233;-60
2024/02/27 00:32:21;;;;;;;23.38;20.20;;;7.30;99.90;;;;;;5077323;28;20209;-60
2024/02/27 00:34:48;;;;;;;21.48;18.77;;;7.30;99.90;;;;;;5086361;28;20213;-60
2024/02/27 00:37:16;;;;;;;28.17;21.05;;;7.30;99.90;;;;;;5070233;28;20213;-60
2024/02/27 00:39:43;;;;;;;27.52;19.85;;;7.40;99.90;;;;;;5084681;28;20238;-60
2024/02/27 00:42:10;;;;;;;25.75;19.52;;;7.40;99.90;;;;;;5087213;28;20304;-60
2024/02/27 00:44:39;;;;;;;23.00;20.05;;;7.50;99.90;;;;;;5085269;28;20215;-58
2024/02/27 00:47:06;;;;;;;23.42;20.40;;;7.50;99.90;;;;;;5088123;28;20216;-60
2024/02/27 00:49:32;;;;;;;23.02;18.90;;;7.50;99.90;;;;;;5082754;28;20312;-60
2024/02/27 00:51:59;;;;;;;25.63;21.77;;;7.50;99.90;;;;;;5072822;28;20324;-60
2024/02/27 00:54:27;;;;;;;26.15;22.00;;;7.50;99.90;;;;;;5087061;28;20239;-59
2024/02/27 00:56:54;;;;;;;27.02;20.08;;;7.50;99.90;;;;;;5088589;28;20296;-59
2024/02/27 00:59:21;;;;;;;27.23;20.90;;;7.60;99.90;;;;;;5073237;28;20252;-59
2024/02/27 01:01:48;;;;;;;24.95;21.00;;;7.60;99.90;;;;;;5085191;28;20209;-60
2024/02/27 01:04:15;;;;;;;23.80;19.73;;;7.60;99.90;;;;;;5086083;28;20215;-58
2024/02/27 01:06:44;;;;;;;27.30;20.00;;;7.60;99.90;;;;;;5080843;28;20442;-60
2024/02/27 01:09:10;;;;;;;22.95;19.58;;;7.60;99.90;;;;;;5087810;28;20704;-60
2024/02/27 01:11:39;;;;;;;24.08;18.73;;;7.60;99.90;;;;;;5087992;28;20216;-60
2024/02/27 01:14:05;;;;;;;22.08;17.67;;;7.60;99.90;;;;;;5087441;28;20215;-59
2024/02/27 01:16:32;;;;;;;21.92;18.05;;;7.50;99.90;;;;;;5070828;28;20229;-60
2024/02/27 01:18:59;;;;;;;22.23;18.55;;;7.50;99.90;;;;;;5087688;28;20232;-60
2024/02/27 01:21:26;;;;;;;24.50;20.30;;;7.50;99.90;;;;;;5087982;28;20209;-57
2024/02/27 01:23:53;;;;;;;25.95;19.85;;;7.50;99.90;;;;;;5087460;28;20213;-60
2024/02/27 01:26:20;;;;;;;21.48;19.27;;;7.50;99.90;;;;;;5078433;28;20206;-60
2024/02/27 01:28:48;;;;;;;22.15;19.20;;;7.40;99.90;;;;;;5085452;28;20241;-60
2024/02/27 01:31:15;;;;;;;23.17;18.98;;;7.50;99.90;;;;;;5091762;28;20208;-60
2024/02/27 01:33:42;;;;;;;24.63;20.50;;;7.40;99.90;;;;;;5091188;28;20292;-60
2024/02/27 01:36:09;;;;;;;24.25;18.52;;;7.40;99.90;;;;;;5091239;28;20209;-58
2024/02/27 01:38:36;;;;;;;24.20;19.13;;;7.40;99.90;;;;;;5091520;28;20231;-59
2024/02/27 01:41:03;;;;;;;21.08;18.20;;;7.40;99.90;;;;;;5091097;28;20269;-59
2024/02/27 01:43:30;;;;;;;22.52;18.02;;;7.40;99.90;;;;;;5091013;28;20288;-60
2024/02/27 01:46:10;;;;;;;20.90;17.63;;;7.30;99.90;;;;;;5091408;28;20212;-60
2024/02/27 01:48:37;;;;;;;18.20;16.40;;;7.30;99.90;;;;;;5091489;28;20311;-59
2024/02/27 01:51:05;;;;;;;22.98;19.60;;;7.30;99.90;;;;;;5090867;28;20211;-60
2024/02/27 01:53:32;;;;;;;22.60;18.73;;;7.30;99.90;;;;;;5090813;28;20212;-60
2024/02/27 01:56:00;;;;;;;20.23;16.90;;;7.20;99.90;;;;;;5090004;28;20569;-59
2024/02/27 01:58:27;;;;;;;18.80;16.92;;;7.20;99.90;;;;;;5071456;28;20344;-60
2024/02/27 02:00:53;;;;;;;19.45;15.50;;;7.20;99.90;;;;;;5089289;28;20216;-60
2024/02/27 02:03:23;;;;;;;16.67;14.93;;;7.10;99.90;;;;;;5090689;28;20300;-60
2024/02/27 02:05:50;;;;;;;15.30;13.60;;;7.10;99.90;;;;;;5090947;28;20213;-60
2024/02/27 02:08:18;;;;;;;16.60;12.60;;;7.10;99.90;;;;;;5081404;28;20216;-60
2024/02/27 02:10:45;;;;;;;17.23;15.10;;;7.00;99.90;;;;;;5082759;28;20209;-59
2024/02/27 02:13:12;;;;;;;17.85;15.00;;;7.00;99.90;;;;;;5081763;28;20217;-59
2024/02/27 02:15:39;;;;;;;16.27;14.50;;;7.00;99.90;;;;;;5083991;28;20679;-58
2024/02/27 02:18:06;;;;;;;16.58;14.98;;;6.90;99.90;;;;;;5083108;28;20209;-60
2024/02/27 02:20:34;;;;;;;16.40;13.43;;;6.80;99.90;;;;;;5082069;28;20404;-59
2024/02/27 02:23:01;;;;;;;18.52;15.18;;;6.80;99.90;;;;;;5088087;28;20685;-57
2024/02/27 02:25:32;;;;;;;16.80;15.05;;;6.80;99.90;;;;;;5075187;28;20209;-60
2024/02/27 02:27:59;;;;;;;14.88;12.82;;;6.80;99.90;;;;;;5078927;28;20205;-59
2024/02/27 02:30:26;;;;;;;15.57;12.48;;;6.70;99.90;;;;;;5090491;28;20239;-60
2024/02/27 02:32:53;;;;;;;16.17;14.63;;;6.70;99.90;;;;;;5084030;28;20296;-58
2024/02/27 02:35:20;;;;;;;16.52;12.38;;;6.70;99.90;;;;;;5088445;28;20215;-60
2024/02/27 02:37:49;;;;;;;17.52;14.05;;;6.60;99.90;;;;;;5080795;28;20295;-59
2024/02/27 02:40:17;;;;;;;16.30;13.90;;;6.60;99.90;;;;;;5077396;28;20233;-59
2024/02/27 02:42:45;;;;;;;17.63;15.73;;;6.60;99.90;;;;;;5089897;28;20205;-59
2024/02/27 02:45:12;;;;;;;17.10;13.02;;;6.50;99.90;;;;;;5090577;28;20298;-60
2024/02/27 02:47:39;;;;;;;17.95;13.73;;;6.50;99.90;;;;;;5090194;28;20212;-57
2024/02/27 02:50:08;;;;;;;16.23;13.38;;;6.40;99.90;;;;;;5090041;28;21001;-60
2024/02/27 02:52:35;;;;;;;20.77;14.73;;;6.40;99.90;;;;;;5090053;28;20595;-59
2024/02/27 02:55:05;;;;;;;15.68;12.63;;;6.40;99.90;;;;;;5090489;28;20304;-60
2024/02/27 02:57:32;;;;;;;18.27;15.18;;;6.40;99.90;;;;;;5090471;28;20679;-58
2024/02/27 02:59:59;;;;;;;15.65;13.05;;;6.30;99.90;;;;;;5089917;28;20825;-58
2024/02/27 03:02:25;;;;;;;15.40;13.25;;;6.30;99.90;;;;;;5089678;28;20209;-59
2024/02/27 03:04:52;;;;;;;14.55;13.05;;;6.30;99.90;;;;;;5090618;28;20213;-60
2024/02/27 03:07:19;;;;;;;18.52;14.02;;;6.20;99.90;;;;;;5090339;28;20205;-59
2024/02/27 03:09:46;;;;;;;15.27;13.65;;;6.20;99.90;;;;;;5089966;28;20243;-57
2024/02/27 03:12:14;;;;;;;16.58;13.50;;;6.10;99.90;;;;;;5089530;28;20213;-58
2024/02/27 03:14:45;;;;;;;19.48;15.63;;;6.10;99.90;;;;;;5089920;28;20212;-60
2024/02/27 03:17:14;;;;;;;15.88;14.23;;;6.10;99.90;;;;;;5090142;28;20201;-59
2024/02/27 03:19:41;;;;;;;16.50;14.77;;;5.90;99.90;;;;;;5089507;28;20268;-59
2024/02/27 03:22:08;;;;;;;16.75;14.77;;;5.90;99.90;;;;;;5089221;28;20209;-59
2024/02/27 03:24:35;;;;;;;21.00;16.30;;;5.80;99.90;;;;;;5089879;28;20687;-59
2024/02/27 03:27:02;;;;;;;19.90;17.80;;;5.80;99.90;;;;;;5089792;28;20290;-56
2024/02/27 03:29:30;;;;;;;17.85;14.48;;;5.70;99.90;;;;;;5089263;28;20236;-59
2024/02/27 03:31:57;;;;;;;20.83;15.07;;;5.60;99.90;;;;;;5089870;28;20640;-59
2024/02/27 03:34:26;;;;;;;22.52;16.23;;;5.60;99.90;;;;;;5087512;28;20209;-59
2024/02/27 03:36:53;;;;;;;19.73;17.67;;;5.50;99.90;;;;;;5083546;28;20649;-55
2024/02/27 03:39:20;;;;;;;22.80;16.75;;;5.40;99.90;;;;;;5089222;28;20228;-57
2024/02/27 03:41:46;;;;;;;22.88;18.23;;;5.40;99.90;;;;;;5089552;28;20205;-57
2024/02/27 03:44:13;;;;;;;20.15;16.73;;;5.30;99.90;;;;;;5088858;28;20208;-57
2024/02/27 03:46:41;;;;;;;22.35;16.70;;;5.30;99.90;;;;;;5089466;28;20213;-60
2024/02/27 03:49:08;;;;;;;21.02;17.80;;;5.20;99.90;;;;;;5088687;28;20233;-60
2024/02/27 03:51:35;;;;;;;23.17;19.10;;;5.20;99.90;;;;;;5089083;28;20683;-57
2024/02/27 03:54:02;;;;;;;22.58;18.85;;;5.10;99.90;;;;;;5088797;28;20213;-60
2024/02/27 03:56:29;;;;;;;20.33;17.75;;;5.10;99.90;;;;;;5089132;28;20212;-57
2024/02/27 03:58:56;;;;;;;29.33;18.58;;;5.10;99.90;;;;;;5088912;28;20790;-58
2024/02/27 04:01:23;;;;;;;21.17;18.65;;;5.00;99.90;;;;;;5089178;28;20233;-58
2024/02/27 04:03:51;;;;;;;24.05;17.92;;;5.00;99.90;;;;;;5088885;28;21024;-56
2024/02/27 04:06:18;;;;;;;25.08;17.55;;;5.00;99.90;;;;;;5089330;28;20227;-56
2024/02/27 04:08:44;;;;;;;21.25;18.30;;;4.90;99.90;;;;;;5089115;28;20236;-58
2024/02/27 04:11:11;;;;;;;22.60;18.05;;;4.90;99.90;;;;;;5088705;28;20201;-53
2024/02/27 04:13:38;;;;;;;23.95;18.38;;;4.90;99.90;;;;;;5088622;28;20213;-58
2024/02/27 04:16:05;;;;;;;22.52;18.17;;;4.90;99.90;;;;;;5088884;28;20208;-58
2024/02/27 04:18:32;;;;;;;25.27;16.25;;;4.90;99.90;;;;;;5088699;28;20228;-58
2024/02/27 04:21:00;;;;;;;22.52;18.08;;;4.90;99.90;;;;;;5088572;28;20229;-59
2024/02/27 04:23:27;;;;;;;19.38;17.45;;;4.90;99.90;;;;;;5085304;28;20211;-57
2024/02/27 04:25:55;;;;;;;24.52;18.83;;;4.90;99.90;;;;;;5088587;28;20212;-58
2024/02/27 04:28:22;;;;;;;23.20;19.65;;;4.90;99.90;;;;;;5088483;28;20310;-59
2024/02/27 04:30:49;;;;;;;28.05;20.40;;;4.90;99.90;;;;;;5088610;28;20209;-59
2024/02/27 04:33:16;;;;;;;25.15;17.75;;;5.00;99.90;;;;;;5088344;28;20234;-55
2024/02/27 04:35:43;;;;;;;25.55;19.80;;;5.00;99.90;;;;;;5088704;28;20247;-60
2024/02/27 04:38:11;;;;;;;27.75;19.05;;;5.00;99.90;;;;;;5088935;28;20208;-60
2024/02/27 04:40:39;;;;;;;22.23;17.42;;;5.00;99.90;;;;;;5088595;28;20800;-59
2024/02/27 04:43:05;;;;;;;19.90;16.02;;;5.00;99.90;;;;;;5088045;28;20208;-59
2024/02/27 04:45:32;;;;;;;21.88;17.88;;;5.10;99.90;;;;;;5088570;28;20205;-56
2024/02/27 04:48:00;;;;;;;24.33;17.27;;;5.10;99.90;;;;;;5088906;28;20233;-57
2024/02/27 04:50:26;;;;;;;23.42;18.00;;;5.10;99.90;;;;;;5088310;28;20625;-58
2024/02/27 04:52:53;;;;;;;26.63;17.02;;;5.10;99.90;;;;;;5087919;28;20213;-58
2024/02/27 04:55:21;;;;;;;21.42;18.63;;;5.00;99.90;;;;;;5088338;28;20311;-60
2024/02/27 04:57:48;;;;;;;23.98;18.40;;;5.10;99.90;;;;;;5088652;28;20212;-59
2024/02/27 05:00:16;;;;;;;23.38;17.73;;;5.10;99.90;;;;;;5088197;28;20323;-58
2024/02/27 05:02:43;;;;;;;19.23;16.15;;;5.10;99.90;;;;;;5090802;28;20223;-58
2024/02/27 05:05:10;;;;;;;24.27;16.98;;;5.10;99.90;;;;;;5092649;28;20208;-59
2024/02/27 05:07:36;;;;;;;24.65;19.33;;;5.10;99.90;;;;;;5092593;28;20598;-54
2024/02/27 05:10:04;;;;;;;23.25;16.80;;;5.10;99.90;;;;;;5092365;28;20230;-57
2024/02/27 05:12:32;;;;;;;19.35;17.08;;;5.10;99.90;;;;;;5092230;28;20584;-58
2024/02/27 05:14:59;;;;;;;23.90;20.40;;;5.10;99.90;;;;;;5092352;28;20209;-56
2024/02/27 05:17:26;;;;;;;23.20;18.67;;;5.00;99.90;;;;;;5092369;28;20205;-58
2024/02/27 05:19:53;;;;;;;26.50;18.67;;;5.00;99.90;;;;;;5092010;28;20228;-58
2024/02/27 05:22:20;;;;;;;21.80;19.02;;;5.00;99.90;;;;;;5091599;28;20208;-60
2024/02/27 05:24:47;;;;;;;25.58;19.27;;;5.00;99.90;;;;;;5092125;28;20687;-57
2024/02/27 05:27:14;;;;;;;22.90;16.95;;;5.00;99.90;;;;;;5091871;28;20216;-59
2024/02/27 05:29:43;;;;;;;28.90;20.42;;;5.00;99.90;;;;;;5091684;28;20327;-57
2024/02/27 05:32:11;;;;;;;25.05;19.95;;;5.00;99.90;;;;;;5091423;28;20223;-58
2024/02/27 05:34:37;;;;;;;33.60;20.75;;;5.00;99.90;;;;;;5092056;28;20245;-57
2024/02/27 05:37:04;;;;;;;30.23;20.33;;;5.00;99.90;;;;;;5091878;28;20213;-60
2024/02/27 05:39:31;;;;;;;27.48;20.48;;;5.00;99.90;;;;;;5091518;28;20227;-56
2024/02/27 05:41:59;;;;;;;27.73;20.35;;;5.00;99.90;;;;;;5092170;28;20232;-57
2024/02/27 05:44:26;;;;;;;21.48;19.13;;;5.00;99.90;;;;;;5092023;28;20308;-58
2024/02/27 05:46:54;;;;;;;28.25;20.52;;;5.00;99.90;;;;;;5091864;28;20247;-57
2024/02/27 05:49:21;;;;;;;27.98;21.23;;;5.00;99.90;;;;;;5091435;28;20771;-58
2024/02/27 05:51:48;;;;;;;26.08;21.00;;;5.00;99.90;;;;;;5091565;28;20562;-57
2024/02/27 05:54:15;;;;;;;28.08;20.67;;;5.00;99.90;;;;;;5091321;28;20653;-55
2024/02/27 05:56:42;;;;;;;30.05;20.65;;;5.00;99.90;;;;;;5091416;28;20212;-58
2024/02/27 05:59:08;;;;;;;26.48;21.08;;;4.90;99.90;;;;;;5091270;28;20225;-54
2024/02/27 06:01:36;;;;;;;26.23;20.45;;;4.90;99.90;;;;;;5091241;28;20233;-59
2024/02/27 06:04:04;;;;;;;36.00;24.27;;;4.90;99.90;;;;;;5090745;28;20211;-59
2024/02/27 06:06:31;;;;;;;26.83;20.33;;;4.90;99.90;;;;;;5091294;28;20701;-58
2024/02/27 06:08:57;;;;;;;33.03;23.83;;;4.90;99.90;;;;;;5091115;28;20738;-57
2024/02/27 06:11:24;;;;;;;32.92;20.92;;;4.90;99.90;;;;;;5091783;28;20208;-60
2024/02/27 06:13:51;;;;;;;34.65;23.73;;;4.90;99.90;;;;;;5089996;28;20209;-60
2024/02/27 06:16:18;;;;;;;32.50;23.25;;;4.80;99.90;;;;;;5091329;28;20219;-60
2024/02/27 06:18:47;;;;;;;33.70;22.17;;;4.80;99.90;;;;;;5091012;28;20236;-60
2024/02/27 06:24:00;;;;;;;32.22;22.20;;;4.80;99.90;;;;;;5090662;28;20219;-60
2024/02/27 06:26:27;;;;;;;27.98;21.30;;;4.80;99.90;;;;;;5090966;28;20220;-60
2024/02/27 06:28:54;;;;;;;34.17;21.85;;;4.80;99.90;;;;;;5107382;22;20234;-60
2024/02/27 06:31:21;;;;;;;31.98;23.23;;;4.80;99.90;;;;;;5050735;28;20679;-61
2024/02/27 06:33:48;;;;;;;31.30;23.30;;;4.80;99.90;;;;;;5050267;28;20329;-60
2024/02/27 06:36:16;;;;;;;31.85;21.60;;;4.80;99.90;;;;;;5050519;28;20599;-61
2024/02/27 06:38:43;;;;;;;29.67;22.20;;;4.80;99.90;;;;;;5050527;28;20217;-60
2024/02/27 06:41:09;;;;;;;28.23;20.55;;;4.80;99.90;;;;;;5050147;28;20226;-60
2024/02/27 06:43:36;;;;;;;33.15;24.23;;;4.80;99.90;;;;;;5049974;28;20206;-60
2024/02/27 06:46:05;;;;;;;33.88;23.75;;;4.80;99.90;;;;;;5050697;28;20212;-62
2024/02/27 06:48:32;;;;;;;26.70;21.30;;;4.80;99.90;;;;;;5050509;28;20599;-60
2024/02/27 06:51:00;;;;;;;31.05;21.40;;;4.90;99.90;;;;;;5050233;28;20289;-61
2024/02/27 06:53:28;;;;;;;30.70;20.67;;;4.90;99.90;;;;;;5049796;28;20295;-60
2024/02/27 06:55:55;;;;;;;24.40;19.50;;;4.90;99.90;;;;;;5049991;28;20210;-61
2024/02/27 06:58:22;;;;;;;32.50;22.92;;;4.90;99.90;;;;;;5050314;28;20210;-61
2024/02/27 07:00:48;;;;;;;29.08;23.75;;;5.00;99.90;;;;;;5049618;28;20240;-60
2024/02/27 07:03:15;;;;;;;33.15;23.40;;;5.00;99.90;;;;;;5049733;28;20684;-61
2024/02/27 07:05:42;;;;;;;32.53;20.95;;;5.00;99.90;;;;;;5049619;28;20229;-59
2024/02/27 07:08:10;;;;;;;28.08;23.08;;;5.00;99.90;;;;;;5049989;28;20625;-60
2024/02/27 07:10:38;;;;;;;27.83;21.10;;;5.10;99.90;;;;;;5049617;28;20233;-60
2024/02/27 07:13:06;;;;;;;28.80;23.30;;;5.10;99.90;;;;;;5049547;28;20325;-60
2024/02/27 07:15:33;;;;;;;28.77;22.05;;;5.10;99.90;;;;;;5050132;28;20964;-61
2024/02/27 07:18:00;;;;;;;27.20;21.45;;;5.20;99.90;;;;;;5050184;28;20214;-62
2024/02/27 07:20:27;;;;;;;30.88;20.73;;;5.20;99.90;;;;;;5049636;28;20317;-60
2024/02/27 07:22:54;;;;;;;31.92;21.88;;;5.30;99.90;;;;;;5049197;28;20207;-61
2024/02/27 07:25:20;;;;;;;31.38;22.15;;;5.40;99.90;;;;;;5049817;28;20585;-61
2024/02/27 07:27:49;;;;;;;26.73;20.90;;;5.40;99.90;;;;;;5049707;28;20210;-60
2024/02/27 07:30:17;;;;;;;29.50;20.25;;;5.40;99.90;;;;;;5049222;28;20249;-61
2024/02/27 07:32:44;;;;;;;32.28;22.55;;;5.50;99.90;;;;;;5049090;28;20214;-61
2024/02/27 07:35:11;;;;;;;26.35;20.15;;;5.50;99.90;;;;;;5049566;28;20213;-61
2024/02/27 07:37:38;;;;;;;23.70;20.73;;;5.60;99.90;;;;;;5049334;28;20756;-61
2024/02/27 07:40:06;;;;;;;31.67;21.63;;;5.70;99.90;;;;;;5048944;28;20230;-61
2024/02/27 07:42:34;;;;;;;29.75;21.52;;;5.80;99.90;;;;;;5048863;28;20234;-60
2024/02/27 07:45:02;;;;;;;30.45;22.63;;;5.90;99.90;;;;;;5049396;28;20677;-61
2024/02/27 07:47:29;;;;;;;34.50;25.55;;;6.00;99.90;;;;;;5049433;28;20329;-61
2024/02/27 07:49:57;;;;;;;32.10;21.85;;;6.10;99.90;;;;;;5049060;28;20606;-62
2024/02/27 07:52:24;;;;;;;35.83;25.17;;;6.20;99.90;;;;;;5048971;28;20210;-62
2024/02/27 07:54:50;;;;;;;37.10;22.40;;;6.30;99.90;;;;;;5049264;28;20211;-62
2024/02/27 07:57:17;;;;;;;28.25;24.65;;;6.40;99.90;;;;;;5049207;28;20210;-62
2024/02/27 07:59:44;;;;;;;33.45;24.98;;;6.50;99.90;;;;;;5048788;28;20238;-62
2024/02/27 08:02:12;;;;;;;28.60;21.35;;;6.60;99.90;;;;;;5048402;28;20704;-61
2024/02/27 08:04:39;;;;;;;28.27;21.55;;;6.70;99.90;;;;;;5049079;28;20592;-59
2024/02/27 08:07:06;;;;;;;27.55;20.55;;;6.80;99.90;;;;;;5048997;28;20221;-62
2024/02/27 08:09:33;;;;;;;24.48;19.23;;;6.90;99.90;;;;;;5048683;28;20740;-61
2024/02/27 08:12:00;;;;;;;25.63;20.58;;;7.00;99.90;;;;;;5048902;28;20206;-61
2024/02/27 08:14:29;;;;;;;30.10;20.30;;;7.20;99.90;;;;;;5048734;28;20207;-60
2024/02/27 08:16:57;;;;;;;27.23;21.50;;;7.30;99.90;;;;;;5048731;28;20256;-61
2024/02/27 08:19:26;;;;;;;29.20;23.17;;;7.40;99.90;;;;;;5048698;28;20662;-61
2024/02/27 08:21:53;;;;;;;30.85;21.10;;;7.50;99.90;;;;;;5048893;28;20256;-62
2024/02/27 08:24:20;;;;;;;24.60;19.50;;;7.50;99.90;;;;;;5047425;28;20336;-62
2024/02/27 08:26:47;;;;;;;21.95;19.33;;;7.70;99.90;;;;;;5048642;28;20467;-61
2024/02/27 08:29:13;;;;;;;27.88;19.33;;;7.80;99.90;;;;;;5047592;28;20234;-61
2024/02/27 08:31:41;;;;;;;30.80;20.45;;;7.90;99.90;;;;;;5047586;28;20319;-60
2024/02/27 08:34:07;;;;;;;30.15;21.05;;;8.00;99.90;;;;;;5047233;28;20210;-60
2024/02/27 08:36:36;;;;;;;22.90;19.85;;;8.20;99.90;;;;;;5046683;28;20211;-61
2024/02/27 08:39:04;;;;;;;24.05;19.00;;;8.30;99.90;;;;;;5047224;28;20972;-61
2024/02/27 08:41:32;;;;;;;26.13;19.07;;;8.40;99.90;;;;;;5047277;28;20317;-62
2024/02/27 08:43:59;;;;;;;23.48;20.90;;;8.50;99.90;;;;;;5046218;28;20449;-62
2024/02/27 08:46:26;;;;;;;25.47;20.53;;;8.60;99.90;;;;;;5047810;28;20213;-61
2024/02/27 08:48:53;;;;;;;26.50;18.77;;;8.70;99.90;;;;;;5047542;28;20908;-62
2024/02/27 08:51:20;;;;;;;25.90;18.40;;;8.80;99.90;;;;;;5047474;28;20602;-62
2024/02/27 08:53:48;;;;;;;23.93;19.40;;;8.90;99.90;;;;;;5047939;28;20459;-61
2024/02/27 08:56:15;;;;;;;24.77;19.87;;;8.90;99.90;;;;;;5048686;28;21198;-61
2024/02/27 08:58:42;;;;;;;20.63;17.27;;;9.00;99.90;;;;;;5048178;28;20459;-61
2024/02/27 09:01:10;;;;;;;20.53;18.30;;;9.10;99.90;;;;;;5047858;28;20484;-62
2024/02/27 09:03:36;;;;;;;29.87;19.93;;;9.20;99.90;;;;;;5047717;28;20468;-62
2024/02/27 09:06:03;;;;;;;20.20;16.40;;;9.20;99.90;;;;;;5038951;28;20461;-62
2024/02/27 09:08:30;;;;;;;25.85;19.40;;;9.30;99.90;;;;;;5047695;28;20453;-61
2024/02/27 09:10:59;;;;;;;19.77;16.87;;;9.40;99.90;;;;;;5047374;28;20210;-61
2024/02/27 09:13:25;;;;;;;19.07;16.93;;;9.40;99.90;;;;;;5046508;28;20456;-63
2024/02/27 09:15:52;;;;;;;21.07;16.40;;;9.40;99.90;;;;;;5037507;28;20449;-61
2024/02/27 09:18:19;;;;;;;19.53;17.07;;;9.50;99.90;;;;;;5044174;28;20452;-61
2024/02/27 09:20:46;;;;;;;22.60;18.40;;;9.50;99.90;;;;;;5046094;28;20493;-62
2024/02/27 09:23:13;;;;;;;23.13;17.87;;;9.70;99.90;;;;;;5049512;28;20488;-61
2024/02/27 09:25:40;;;;;;;27.27;19.47;;;9.70;99.90;;;;;;5047428;28;20532;-63
2024/02/27 09:28:08;;;;;;;20.90;18.10;;;9.80;99.90;;;;;;5034632;28;21129;-61
2024/02/27 09:30:35;;;;;;;23.53;18.30;;;9.80;99.90;;;;;;5045210;28;20485;-62
2024/02/27 09:33:02;;;;;;;21.07;16.00;;;9.90;99.90;;;;;;5045140;28;20449;-62
2024/02/27 09:35:29;;;;;;;19.37;17.27;;;9.80;99.90;;;;;;5031507;28;20449;-62
2024/02/27 09:37:55;;;;;;;22.73;18.10;;;9.90;99.90;;;;;;5041087;28;20456;-61
2024/02/27 09:40:22;;;;;;;24.87;18.53;;;9.80;99.90;;;;;;5046135;28;20542;-62
2024/02/27 09:42:51;;;;;;;19.73;17.00;;;9.80;99.90;;;;;;5046250;28;20253;-60
2024/02/27 09:45:21;;;;;;;22.77;17.70;;;9.70;99.90;;;;;;5027108;28;20449;-61
2024/02/27 09:47:50;;;;;;;23.60;19.00;;;9.70;99.90;;;;;;5037652;28;20440;-61
2024/02/27 09:50:19;;;;;;;20.73;17.27;;;9.70;99.90;;;;;;5050529;28;20464;-62
2024/02/27 09:52:48;;;;;;;21.43;17.27;;;9.70;99.90;;;;;;5050137;28;20459;-62
2024/02/27 09:55:15;;;;;;;22.63;16.20;;;9.70;99.90;;;;;;5051186;28;20568;-60
2024/02/27 09:57:44;;;;;;;18.70;16.70;;;9.70;99.90;;;;;;5051192;28;20487;-63
2024/02/27 10:00:12;;;;;;;24.17;17.70;;;9.70;99.90;;;;;;5050871;28;21062;-62
2024/02/27 10:02:41;;;;;;;18.57;16.23;;;9.70;99.90;;;;;;5050392;28;20524;-62
2024/02/27 10:05:10;;;;;;;19.77;15.70;;;9.80;99.90;;;;;;5050785;28;20449;-62
2024/02/27 10:07:39;;;;;;;25.60;20.07;;;9.80;99.90;;;;;;5050254;28;20461;-60
2024/02/27 10:10:07;;;;;;;22.83;18.43;;;9.90;99.90;;;;;;5050685;28;20464;-62
2024/02/27 10:12:34;;;;;;;22.90;19.17;;;9.80;99.90;;;;;;5050184;28;20878;-62
2024/02/27 10:15:02;;;;;;;20.80;17.97;;;9.80;99.90;;;;;;5050549;28;20455;-60
2024/02/27 10:17:31;;;;;;;24.00;16.60;;;9.80;99.90;;;;;;5050652;28;20534;-61
2024/02/27 10:20:00;;;;;;;25.37;18.37;;;9.90;99.90;;;;;;5050098;28;20473;-60
2024/02/27 10:22:29;;;;;;;18.53;16.27;;;9.90;99.90;;;;;;5049919;28;20849;-61
2024/02/27 10:25:05;;;;;;;19.80;16.07;;;9.90;99.90;;;;;;5050301;28;20463;-60
2024/02/27 10:27:33;;;;;;;20.10;17.33;;;9.90;99.90;;;;;;5050127;28;20453;-61
2024/02/27 10:30:01;;;;;;;20.20;18.00;;;10.00;99.90;;;;;;5049962;28;20482;-62
2024/02/27 10:32:31;;;;;;;20.03;17.73;;;10.10;99.90;;;;;;5049741;28;20544;-62
2024/02/27 10:35:02;;;;;;;18.37;16.47;;;10.10;99.90;;;;;;5050426;28;20920;-62
2024/02/27 10:37:31;;;;;;;19.03;16.73;;;10.20;99.90;;;;;;5050107;28;20547;-62
2024/02/27 10:39:59;;;;;;;25.07;17.10;;;10.30;99.90;;;;;;5050021;28;20855;-61
2024/02/27 10:42:27;;;;;;;19.00;16.37;;;10.40;99.90;;;;;;5049337;28;20496;-60
2024/02/27 10:44:55;;;;;;;20.20;17.93;;;10.50;99.90;;;;;;5049820;28;20950;-61
2024/02/27 10:47:22;;;;;;;23.80;19.13;;;10.50;99.90;;;;;;5049905;28;20459;-62
2024/02/27 10:49:49;;;;;;;18.47;16.07;;;10.40;99.90;;;;;;5049689;28;20476;-62
2024/02/27 10:52:18;;;;;;;20.20;17.87;;;10.50;99.90;;;;;;5049171;28;20449;-62
2024/02/27 10:54:46;;;;;;;20.13;17.50;;;10.50;99.90;;;;;;5049837;28;20449;-62
2024/02/27 10:57:14;;;;;;;21.33;17.37;;;10.50;99.90;;;;;;5049831;28;20453;-61
2024/02/27 10:59:43;;;;;;;20.53;16.63;;;10.50;99.90;;;;;;5049033;28;20469;-62
2024/02/27 11:02:16;;;;;;;21.70;17.47;;;10.60;99.90;;;;;;5049010;28;20480;-62
2024/02/27 11:04:45;;;;;;;22.07;16.13;;;10.60;99.90;;;;;;5050043;28;20479;-62
2024/02/27 11:07:13;;;;;;;22.80;18.50;;;10.60;99.90;;;;;;5049795;28;20449;-62
2024/02/27 11:09:43;;;;;;;21.60;16.83;;;10.60;99.90;;;;;;5049423;28;20555;-62
2024/02/27 11:12:12;;;;;;;21.80;18.70;;;10.70;99.90;;;;;;5048746;28;20448;-62
2024/02/27 11:14:43;;;;;;;22.70;17.63;;;10.70;99.90;;;;;;5049733;28;20452;-60
2024/02/27 11:17:14;;;;;;;22.90;18.83;;;10.70;99.90;;;;;;5049502;28;20448;-61
2024/02/27 11:19:47;;;;;;;21.70;17.43;;;10.70;99.90;;;;;;5049196;28;20565;-62
2024/02/27 11:22:14;;;;;;;22.13;16.40;;;10.70;99.90;;;;;;5048075;28;20577;-61
2024/02/27 11:24:43;;;;;;;20.03;14.43;;;10.80;99.90;;;;;;5049360;28;20455;-61
2024/02/27 11:27:12;;;;;;;22.17;17.30;;;10.90;99.90;;;;;;5049245;28;20451;-62
2024/02/27 11:29:39;;;;;;;20.50;16.00;;;10.90;99.90;;;;;;5048729;28;20477;-61
2024/02/27 11:32:07;;;;;;;18.37;16.40;;;11.00;99.90;;;;;;5048250;28;20535;-63
2024/02/27 11:34:34;;;;;;;19.07;16.37;;;11.10;99.90;;;;;;5046726;28;20453;-61
2024/02/27 11:37:08;;;;;;;24.13;17.67;;;11.20;99.90;;;;;;5047857;28;20445;-61
2024/02/27 11:39:35;;;;;;;19.80;15.07;;;11.40;99.90;;;;;;5046138;28;20995;-63
2024/02/27 11:42:05;;;;;;;17.97;16.07;;;11.50;99.90;;;;;;5047340;28;20496;-64
2024/02/27 11:44:32;;;;;;;19.07;15.67;;;11.60;99.90;;;;;;5047875;28;20456;-62
2024/02/27 11:46:59;;;;;;;19.80;15.80;;;11.80;99.90;;;;;;5047860;28;20551;-62
2024/02/27 11:49:39;;;;;;;19.97;15.70;;;11.90;99.90;;;;;;5042448;28;20880;-63
2024/02/27 11:52:06;;;;;;;17.07;15.13;;;12.00;99.90;;;;;;5047035;28;20445;-61
2024/02/27 11:54:35;;;;;;;19.60;15.60;;;12.20;99.90;;;;;;5047854;28;20445;-61
2024/02/27 11:57:04;;;;;;;18.23;16.53;;;12.40;99.90;;;;;;5055745;28;20464;-60
2024/02/27 11:59:31;;;;;;;15.30;13.13;;;12.50;99.90;;;;;;5052028;28;21033;-61
2024/02/27 12:02:03;;;;;;;16.60;14.80;;;12.80;99.90;;;;;;5034554;28;20514;-63
2024/02/27 12:04:30;;;;;;;17.17;15.30;;;13.10;99.90;;;;;;5056248;28;20513;-62
2024/02/27 12:06:57;;;;;;;16.67;14.30;;;13.50;99.90;;;;;;5056778;28;20460;-61
2024/02/27 12:09:25;;;;;;;19.47;16.13;;;13.70;99.90;;;;;;5048175;28;20560;-62
2024/02/27 12:11:53;;;;;;;17.53;13.97;;;13.70;99.90;;;;;;5049716;28;20453;-61
2024/02/27 12:14:21;;;;;;;17.37;15.57;;;13.70;99.90;;;;;;5047328;28;20460;-61
2024/02/27 12:16:48;;;;;;;17.00;15.00;;;13.70;99.90;;;;;;5047270;28;20453;-62
2024/02/27 12:19:15;;;;;;;21.07;15.20;;;13.60;99.90;;;;;;5047331;28;20504;-62
2024/02/27 12:21:42;;;;;;;17.30;15.50;;;13.50;99.90;;;;;;5048726;28;20452;-61
2024/02/27 12:24:10;;;;;;;16.83;13.70;;;13.40;99.90;;;;;;5046929;28;21133;-61
2024/02/27 12:26:37;;;;;;;16.53;14.70;;;13.40;99.90;;;;;;5056707;28;20543;-61
2024/02/27 12:29:03;;;;;;;14.90;13.33;;;13.30;99.90;;;;;;5074431;22;20484;-64
2024/02/27 12:31:33;;;;;;;18.07;14.20;;;13.30;99.90;;;;;;5099468;28;20458;-64
2024/02/27 12:34:00;;;;;;;17.27;14.87;;;13.20;99.90;;;;;;5100271;28;20529;-64
2024/02/27 12:36:28;;;;;;;16.73;14.50;;;13.10;99.90;;;;;;5106914;28;20446;-63
2024/02/27 12:38:55;;;;;;;17.30;14.60;;;13.00;99.90;;;;;;5095439;28;20456;-64